地図

経路データ

SID SEASON NUMBER BASIN SUBBASIN NAME ISO_TIME NATURE LAT LON WMO_WIND WMO_PRES WMO_AGENCY TRACK_TYPE DIST2LAND LANDFALL IFLAG USA_AGENCY USA_ATCF_ID USA_LAT USA_LON USA_RECORD USA_STATUS USA_WIND USA_PRES USA_SSHS USA_R34_NE USA_R34_SE USA_R34_SW USA_R34_NW USA_R50_NE USA_R50_SE USA_R50_SW USA_R50_NW USA_R64_NE USA_R64_SE USA_R64_SW USA_R64_NW USA_POCI USA_ROCI USA_RMW USA_EYE TOKYO_LAT TOKYO_LON TOKYO_GRADE TOKYO_WIND TOKYO_PRES TOKYO_R50_DIR TOKYO_R50_LONG TOKYO_R50_SHORT TOKYO_R30_DIR TOKYO_R30_LONG TOKYO_R30_SHORT TOKYO_LAND CMA_LAT CMA_LON CMA_CAT CMA_WIND CMA_PRES HKO_LAT HKO_LON HKO_CAT HKO_WIND HKO_PRES NEWDELHI_LAT NEWDELHI_LON NEWDELHI_GRADE NEWDELHI_WIND NEWDELHI_PRES NEWDELHI_CI NEWDELHI_DP NEWDELHI_POCI REUNION_LAT REUNION_LON REUNION_TYPE REUNION_WIND REUNION_PRES REUNION_TNUM REUNION_CI REUNION_RMW REUNION_R34_NE REUNION_R34_SE REUNION_R34_SW REUNION_R34_NW REUNION_R50_NE REUNION_R50_SE REUNION_R50_SW REUNION_R50_NW REUNION_R64_NE REUNION_R64_SE REUNION_R64_SW REUNION_R64_NW BOM_LAT BOM_LON BOM_TYPE BOM_WIND BOM_PRES BOM_TNUM BOM_CI BOM_RMW BOM_R34_NE BOM_R34_SE BOM_R34_SW BOM_R34_NW BOM_R50_NE BOM_R50_SE BOM_R50_SW BOM_R50_NW BOM_R64_NE BOM_R64_SE BOM_R64_SW BOM_R64_NW BOM_ROCI BOM_POCI BOM_EYE BOM_POS_METHOD BOM_PRES_METHOD NADI_LAT NADI_LON NADI_CAT NADI_WIND NADI_PRES WELLINGTON_LAT WELLINGTON_LON WELLINGTON_WIND WELLINGTON_PRES DS824_LAT DS824_LON DS824_STAGE DS824_WIND DS824_PRES TD9636_LAT TD9636_LON TD9636_STAGE TD9636_WIND TD9636_PRES TD9635_LAT TD9635_LON TD9635_WIND TD9635_PRES TD9635_ROCI NEUMANN_LAT NEUMANN_LON NEUMANN_CLASS NEUMANN_WIND NEUMANN_PRES MLC_LAT MLC_LON MLC_CLASS MLC_WIND MLC_PRES USA_GUST BOM_GUST BOM_GUST_PER REUNION_GUST REUNION_GUST_PER USA_SEAHGT USA_SEARAD_NE USA_SEARAD_SE USA_SEARAD_SW USA_SEARAD_NW STORM_SPEED STORM_DIR
1881070S21053 1881 8 SI MM NOT_NAMED 1881-03-11 06:00:00 NR -21.1000 53.4000 reunion main 186 186 _____O________ -1 -21.1000 53.4000 99 9.90000 3 220
1881070S21053 1881 8 SI MM NOT_NAMED 1881-03-11 09:00:00 NR -21.1960 53.3128 main 197 197 _____P________ -1 -21.1960 53.3128 99 3 221
1881070S21053 1881 8 SI MM NOT_NAMED 1881-03-11 12:00:00 NR -21.2923 53.2254 main 208 208 _____P________ -1 -21.2923 53.2254 99 3 220
1881070S21053 1881 8 SI MM NOT_NAMED 1881-03-11 15:00:00 NR -21.3894 53.1380 main 220 220 _____P________ -1 -21.3894 53.1380 99 3 220
1881070S21053 1881 8 SI MM NOT_NAMED 1881-03-11 18:00:00 NR -21.4876 53.0505 main 222 222 _____P________ -1 -21.4876 53.0505 99 3 219
1881070S21053 1881 8 SI MM NOT_NAMED 1881-03-11 21:00:00 NR -21.5874 52.9629 main 234 234 _____P________ -1 -21.5874 52.9629 99 3 219
1881070S21053 1881 8 SI MM NOT_NAMED 1881-03-12 00:00:00 NR -21.6891 52.8753 main 247 247 _____P________ -1 -21.6891 52.8753 99 3 218
1881070S21053 1881 8 SI MM NOT_NAMED 1881-03-12 03:00:00 NR -21.7932 52.7877 main 260 260 _____P________ -1 -21.7932 52.7877 99 3 217
1881070S21053 1881 8 SI MM NOT_NAMED 1881-03-12 06:00:00 NR -21.9000 52.7000 reunion main 273 273 _____O________ -1 -21.9000 52.7000 99 9.90000 3 217
1881070S21053 1881 8 SI MM NOT_NAMED 1881-03-12 09:00:00 NR -22.0101 52.6123 main 287 287 _____P________ -1 -22.0101 52.6123 99 3 216
1881070S21053 1881 8 SI MM NOT_NAMED 1881-03-12 12:00:00 NR -22.1250 52.5247 main 300 300 _____P________ -1 -22.1250 52.5247 99 3 215
1881070S21053 1881 8 SI MM NOT_NAMED 1881-03-12 15:00:00 NR -22.2461 52.4370 main 314 314 _____P________ -1 -22.2461 52.4370 99 3 213
1881070S21053 1881 8 SI MM NOT_NAMED 1881-03-12 18:00:00 NR -22.3750 52.3495 main 332 332 _____P________ -1 -22.3750 52.3495 99 3 212
1881070S21053 1881 8 SI MM NOT_NAMED 1881-03-12 21:00:00 NR -22.5132 52.2620 main 337 337 _____P________ -1 -22.5132 52.2620 99 3 210
1881070S21053 1881 8 SI MM NOT_NAMED 1881-03-13 00:00:00 NR -22.6625 52.1745 main 355 355 _____P________ -1 -22.6625 52.1745 99 4 208
1881070S21053 1881 8 SI MM NOT_NAMED 1881-03-13 03:00:00 NR -22.8242 52.0872 main 369 369 _____P________ -1 -22.8242 52.0872 99 4 206
1881070S21053 1881 8 SI MM NOT_NAMED 1881-03-13 06:00:00 NR -23.0000 52.0000 reunion main 389 389 _____O________ -1 -23.0000 52.0000 99 9.90000 4 204
1881070S21053 1881 8 SI MM NOT_NAMED 1881-03-13 09:00:00 NR -23.2059 51.9014 main 409 405 _____P________ -1 -23.2059 51.9014 99 5 203
1881070S21053 1881 8 SI MM NOT_NAMED 1881-03-13 12:00:00 NR -23.4282 51.8014 main 410 405 _____P________ -1 -23.4282 51.8014 99 5 202
1881070S21053 1881 8 SI MM NOT_NAMED 1881-03-13 15:00:00 NR -23.6614 51.7022 main 408 399 _____P________ -1 -23.6614 51.7022 99 5 200
1881070S21053 1881 8 SI MM NOT_NAMED 1881-03-13 18:00:00 NR -23.9001 51.6061 main 400 392 _____P________ -1 -23.9001 51.6061 99 5 200
1881070S21053 1881 8 SI MM NOT_NAMED 1881-03-13 21:00:00 NR -24.1388 51.5155 main 394 389 _____P________ -1 -24.1388 51.5155 99 5 198
1881070S21053 1881 8 SI MM NOT_NAMED 1881-03-14 00:00:00 NR -24.3720 51.4326 main 392 392 _____P________ -1 -24.3720 51.4326 99 5 197
1881070S21053 1881 8 SI MM NOT_NAMED 1881-03-14 03:00:00 NR -24.5942 51.3600 main 398 389 _____P________ -1 -24.5942 51.3600 99 4 195
1881070S21053 1881 8 SI MM NOT_NAMED 1881-03-14 06:00:00 NR -24.8000 51.3000 reunion main 394 394 _____O________ -1 -24.8000 51.3000 99 9.90000 4 194
1881070S21053 1881 8 SI MM NOT_NAMED 1881-03-14 09:00:00 NR -24.9853 51.2543 main 400 390 _____P________ -1 -24.9853 51.2543 99 4 191
1881070S21053 1881 8 SI MM NOT_NAMED 1881-03-14 12:00:00 NR -25.1514 51.2218 main 397 397 _____P________ -1 -25.1514 51.2218 99 3 191
1881070S21053 1881 8 SI MM NOT_NAMED 1881-03-14 15:00:00 NR -25.3012 51.2007 main 400 400 _____P________ -1 -25.3012 51.2007 99 3 187
1881070S21053 1881 8 SI MM NOT_NAMED 1881-03-14 18:00:00 NR -25.4373 51.1891 main 404 404 _____P________ -1 -25.4373 51.1891 99 3 185
1881070S21053 1881 8 SI MM NOT_NAMED 1881-03-14 21:00:00 NR -25.5625 51.1851 main 411 411 _____P________ -1 -25.5625 51.1851 99 2 0
1881070S21053 1881 8 SI MM NOT_NAMED 1881-03-15 00:00:00 NR -25.6796 51.1869 main 414 414 _____P________ -1 -25.6796 51.1869 99 2 0
1881070S21053 1881 8 SI MM NOT_NAMED 1881-03-15 03:00:00 NR -25.7912 51.1925 main 418 418 _____P________ -1 -25.7912 51.1925 99 2 0
1881070S21053 1881 8 SI MM NOT_NAMED 1881-03-15 06:00:00 NR -25.9000 51.2000 reunion main 422 _____O________ -1 -25.9000 51.2000 99 9.90000 2 167

IBTrACS Databaseについて

本データベースは、米国NOAAが公開する1842年以降の世界の熱帯低気圧のベストトラックデータアーカイブInternational Best Track Archive for Climate Stewardship (IBTrACS)を、ウェブで閲覧しやすい形式に変換したものです。

最終更新日:2021-11-26